createdAt,value
2022-12-08T00:01:19.047Z,61.68
2022-12-08T00:03:45.973Z,61.68
2022-12-08T00:06:25.975Z,61.53
2022-12-08T00:08:52.644Z,61.90
2022-12-08T00:11:19.504Z,61.70
2022-12-08T00:13:46.227Z,62.16
2022-12-08T00:16:12.971Z,62.16
2022-12-08T00:18:39.680Z,62.67
2022-12-08T00:21:06.364Z,62.14
2022-12-08T00:23:33.006Z,62.76
2022-12-08T00:26:04.983Z,62.45
2022-12-08T00:28:32.118Z,62.15
2022-12-08T00:30:58.793Z,61.95
2022-12-08T00:33:25.463Z,61.68
2022-12-08T00:35:52.133Z,61.62
2022-12-08T00:38:18.784Z,61.69
2022-12-08T00:40:46.038Z,61.52
2022-12-08T00:43:12.974Z,62.15
2022-12-08T00:45:39.733Z,61.82
2022-12-08T00:48:06.574Z,61.88
2022-12-08T00:50:33.220Z,61.77
2022-12-08T00:52:59.874Z,62.13
2022-12-08T00:55:26.534Z,62.27
2022-12-08T00:57:53.177Z,61.79
2022-12-08T01:00:20.098Z,62.12
2022-12-08T01:02:46.797Z,61.91
2022-12-08T01:05:13.514Z,62.12
2022-12-08T01:07:40.281Z,62.41
2022-12-08T01:10:07.707Z,62.90
2022-12-08T01:12:34.411Z,63.60
2022-12-08T01:15:02.669Z,63.42
2022-12-08T01:17:29.600Z,63.26
2022-12-08T01:19:56.259Z,62.45
2022-12-08T01:22:22.933Z,62.93
2022-12-08T01:24:49.683Z,62.43
2022-12-08T01:27:16.437Z,62.77
2022-12-08T01:29:43.106Z,62.41
2022-12-08T01:32:09.755Z,61.36
2022-12-08T01:34:36.421Z,62.01
2022-12-08T01:37:03.125Z,61.66
2022-12-08T01:39:29.818Z,62.20
2022-12-08T01:41:56.486Z,60.64
2022-12-08T01:44:22.985Z,60.77
2022-12-08T01:46:49.806Z,60.38
2022-12-08T01:49:20.688Z,60.89
2022-12-08T01:51:50.961Z,61.10
2022-12-08T01:54:17.600Z,60.14
2022-12-08T01:56:54.933Z,60.65
2022-12-08T01:59:21.607Z,61.13
2022-12-08T02:01:48.286Z,61.15
2022-12-08T02:04:14.991Z,61.50
2022-12-08T02:06:43.148Z,61.73
2022-12-08T02:09:09.792Z,61.37
2022-12-08T02:11:36.476Z,61.10
2022-12-08T02:14:04.252Z,61.68
2022-12-08T02:16:45.713Z,62.14
2022-12-08T02:19:31.862Z,62.86
2022-12-08T02:22:25.280Z,62.83
2022-12-08T02:25:00.591Z,62.81
2022-12-08T02:27:51.186Z,62.52
2022-12-08T02:30:45.681Z,63.11
2022-12-08T02:33:26.483Z,62.06
2022-12-08T02:36:02.674Z,62.65
2022-12-08T02:38:49.445Z,62.07
2022-12-08T02:41:21.186Z,62.96
2022-12-08T02:43:48.825Z,62.90
2022-12-08T02:46:22.066Z,62.47
2022-12-08T02:48:50.432Z,62.98
2022-12-08T02:51:17.072Z,63.18
2022-12-08T02:53:43.731Z,62.01
2022-12-08T02:56:13.279Z,62.06
2022-12-08T02:58:55.062Z,62.03
2022-12-08T03:01:21.632Z,62.23
2022-12-08T03:03:59.633Z,62.53
2022-12-08T03:06:41.475Z,62.79
2022-12-08T03:09:18.160Z,62.69
2022-12-08T03:11:47.882Z,62.37
2022-12-08T03:14:16.114Z,62.53
2022-12-08T03:16:44.269Z,62.50
2022-12-08T03:19:19.165Z,62.68
2022-12-08T03:21:48.416Z,62.64
2022-12-08T03:24:15.191Z,62.37
2022-12-08T03:26:54.175Z,62.92
2022-12-08T03:29:20.837Z,63.02
2022-12-08T03:31:58.323Z,63.71
2022-12-08T03:34:26.481Z,63.92
2022-12-08T03:36:53.126Z,64.21
2022-12-08T03:39:19.781Z,64.43
2022-12-08T03:41:46.504Z,64.59
2022-12-08T03:44:13.157Z,64.77
2022-12-08T03:46:39.803Z,64.99
2022-12-08T03:49:06.462Z,64.99
2022-12-08T03:51:33.115Z,65.30
2022-12-08T03:53:59.795Z,65.36
2022-12-08T03:56:29.210Z,65.32
2022-12-08T03:58:55.913Z,65.80
2022-12-08T04:01:22.763Z,64.58
2022-12-08T04:03:49.522Z,64.99
2022-12-08T04:06:16.169Z,65.69
2022-12-08T04:08:42.806Z,66.00
2022-12-08T04:11:09.692Z,65.94
2022-12-08T04:13:37.405Z,66.08
2022-12-08T04:16:04.342Z,65.35
2022-12-08T04:18:31.705Z,65.93
2022-12-08T04:20:58.361Z,65.38
2022-12-08T04:23:24.991Z,66.42
2022-12-08T04:25:51.992Z,66.63
2022-12-08T04:28:18.786Z,65.81
2022-12-08T04:30:45.441Z,65.80
2022-12-08T04:33:12.071Z,66.00
2022-12-08T04:35:38.710Z,66.19
2022-12-08T04:38:05.378Z,66.42
2022-12-08T04:40:32.007Z,65.23
2022-12-08T04:42:58.669Z,65.98
2022-12-08T04:45:25.301Z,66.20
2022-12-08T04:47:51.962Z,65.71
2022-12-08T04:50:18.608Z,66.01
2022-12-08T04:52:45.329Z,65.20
2022-12-08T04:55:11.970Z,64.77
2022-12-08T04:57:38.611Z,66.66
2022-12-08T05:00:06.325Z,65.01
2022-12-08T05:02:33.253Z,65.93
2022-12-08T05:04:59.953Z,65.64
2022-12-08T05:07:26.564Z,66.32
2022-12-08T05:09:53.203Z,65.32
2022-12-08T05:12:20.495Z,65.59
2022-12-08T05:14:47.703Z,66.17
2022-12-08T05:17:15.587Z,67.00
2022-12-08T05:19:42.234Z,67.74
2022-12-08T05:22:08.872Z,68.38
2022-12-08T05:24:35.511Z,68.13
2022-12-08T05:27:02.170Z,67.88
2022-12-08T05:29:28.855Z,67.66
2022-12-08T05:31:55.585Z,67.92
2022-12-08T05:34:22.282Z,67.71
2022-12-08T05:36:48.933Z,67.08
2022-12-08T05:39:15.574Z,66.34
2022-12-08T05:41:42.235Z,66.12
2022-12-08T05:44:08.883Z,66.34
2022-12-08T05:46:35.539Z,66.61
2022-12-08T05:49:02.319Z,66.74
2022-12-08T05:51:28.984Z,66.09
2022-12-08T05:53:55.769Z,66.17
2022-12-08T05:56:22.420Z,66.64
2022-12-08T05:58:49.131Z,67.32
2022-12-08T06:01:25.998Z,67.34
2022-12-08T06:03:52.641Z,67.40
2022-12-08T06:06:19.333Z,66.86
2022-12-08T06:08:45.968Z,66.89
2022-12-08T06:11:26.422Z,67.18
2022-12-08T06:13:53.120Z,66.33
2022-12-08T06:16:19.823Z,65.75
2022-12-08T06:18:46.486Z,66.00
2022-12-08T06:21:13.817Z,66.66
2022-12-08T06:23:40.447Z,66.48
2022-12-08T06:26:12.343Z,66.95
2022-12-08T06:28:40.287Z,66.16
2022-12-08T06:31:12.505Z,65.40
2022-12-08T06:33:39.157Z,65.10
2022-12-08T06:36:06.252Z,64.91
2022-12-08T06:38:33.149Z,65.77
2022-12-08T06:40:59.866Z,66.29
2022-12-08T06:43:26.585Z,65.76
2022-12-08T06:45:53.913Z,65.83
2022-12-08T06:48:20.629Z,66.92
2022-12-08T06:50:47.246Z,66.00
2022-12-08T06:53:15.471Z,65.70
2022-12-08T06:56:01.083Z,66.42
2022-12-08T06:58:27.817Z,66.81
2022-12-08T07:00:55.599Z,66.32
2022-12-08T07:03:22.419Z,66.87
2022-12-08T07:05:49.119Z,66.13
2022-12-08T07:08:15.998Z,65.86
2022-12-08T07:10:42.833Z,65.29
2022-12-08T07:13:09.756Z,65.85
2022-12-08T07:15:36.704Z,66.66
2022-12-08T07:18:03.752Z,66.97
2022-12-08T07:20:30.508Z,67.81
2022-12-08T07:22:57.145Z,67.57
2022-12-08T07:25:23.785Z,68.28
2022-12-08T07:27:50.416Z,67.99
2022-12-08T07:30:17.122Z,68.09
2022-12-08T07:32:43.743Z,67.98
2022-12-08T07:35:10.402Z,68.51
2022-12-08T07:37:37.327Z,68.20
2022-12-08T07:40:05.514Z,68.29
2022-12-08T07:42:32.335Z,68.22
2022-12-08T07:44:59.268Z,67.06
2022-12-08T07:47:25.925Z,66.77
2022-12-08T07:49:52.570Z,67.08
2022-12-08T07:52:19.210Z,67.93
2022-12-08T07:54:45.849Z,66.16
2022-12-08T07:57:12.497Z,67.36
2022-12-08T07:59:39.128Z,66.30
2022-12-08T08:02:23.338Z,67.04
2022-12-08T08:04:51.265Z,65.39
2022-12-08T08:07:18.004Z,59.68
2022-12-08T08:09:44.636Z,55.05
2022-12-08T08:12:30.283Z,50.39
2022-12-08T08:14:57.867Z,47.95
2022-12-08T08:17:24.657Z,45.67
2022-12-08T08:19:51.475Z,44.01
2022-12-08T08:22:18.121Z,42.34
2022-12-08T08:24:45.363Z,41.39
2022-12-08T08:27:12.280Z,40.51
2022-12-08T08:29:38.929Z,38.74
2022-12-08T08:32:05.561Z,37.69
2022-12-08T08:34:32.196Z,36.20
2022-12-08T08:36:58.912Z,36.44
2022-12-08T08:39:25.660Z,35.72
2022-12-08T08:41:52.429Z,35.22
2022-12-08T08:44:19.050Z,35.07
2022-12-08T08:46:45.807Z,34.25
2022-12-08T08:49:12.461Z,33.69
2022-12-08T08:51:39.093Z,33.56
2022-12-08T08:54:05.747Z,33.42
2022-12-08T08:56:32.586Z,32.61
2022-12-08T08:58:59.228Z,31.99
2022-12-08T09:01:26.962Z,32.34
2022-12-08T09:03:53.950Z,32.07
2022-12-08T09:06:20.657Z,31.47
2022-12-08T09:08:48.493Z,32.45
2022-12-08T09:11:15.128Z,31.70
2022-12-08T09:13:41.766Z,30.28
2022-12-08T09:16:08.814Z,29.83
2022-12-08T09:18:35.511Z,29.23
2022-12-08T09:21:06.462Z,28.39
2022-12-08T09:23:35.596Z,28.69
2022-12-08T09:26:03.117Z,28.62
2022-12-08T09:28:29.776Z,28.90
2022-12-08T09:30:56.472Z,29.30
2022-12-08T09:33:23.161Z,28.02
2022-12-08T09:35:49.793Z,28.76
2022-12-08T09:38:16.426Z,27.87
2022-12-08T09:40:50.972Z,28.90
2022-12-08T09:43:39.717Z,29.60
2022-12-08T09:46:07.466Z,31.52
2022-12-08T09:48:36.131Z,33.34
2022-12-08T09:51:02.781Z,35.46
2022-12-08T09:53:50.787Z,36.88
2022-12-08T09:56:19.476Z,37.46
2022-12-08T09:58:58.813Z,38.05
2022-12-08T10:01:31.146Z,37.62
2022-12-08T10:03:58.384Z,37.95
2022-12-08T10:06:52.219Z,38.57
2022-12-08T10:09:52.865Z,39.38
2022-12-08T10:12:32.564Z,40.26
2022-12-08T10:15:17.907Z,40.32
2022-12-08T10:17:48.774Z,41.45
2022-12-08T10:20:20.946Z,40.64
2022-12-08T10:22:50.262Z,41.59
2022-12-08T10:25:22.350Z,41.79
2022-12-08T10:27:49.861Z,42.37
2022-12-08T10:30:20.458Z,42.20
2022-12-08T10:32:49.352Z,42.02
2022-12-08T10:35:16.789Z,42.08
2022-12-08T10:38:00.025Z,42.34
2022-12-08T10:40:36.887Z,42.43
2022-12-08T10:43:05.827Z,44.32
2022-12-08T10:45:37.653Z,43.89
2022-12-08T10:48:18.034Z,43.19
2022-12-08T10:50:50.667Z,43.35
2022-12-08T10:53:28.463Z,42.73
2022-12-08T10:56:04.163Z,41.24
2022-12-08T10:58:40.199Z,40.41
2022-12-08T11:01:25.758Z,41.73
2022-12-08T11:03:57.437Z,43.81
2022-12-08T11:06:30.724Z,43.53
2022-12-08T11:09:01.363Z,44.02
2022-12-08T11:11:51.324Z,43.34
2022-12-08T11:14:29.918Z,43.51
2022-12-08T11:17:06.887Z,42.99
2022-12-08T11:19:36.854Z,42.25
2022-12-08T11:22:26.601Z,41.36
2022-12-08T11:25:02.774Z,42.47
2022-12-08T11:27:29.522Z,42.15
2022-12-08T11:29:56.192Z,42.12
2022-12-08T11:32:22.816Z,42.16
2022-12-08T11:34:50.664Z,42.33
2022-12-08T11:37:38.361Z,43.52
2022-12-08T11:40:07.786Z,44.18
2022-12-08T11:42:38.246Z,44.02
2022-12-08T11:45:11.426Z,43.59
2022-12-08T11:47:45.316Z,42.91
2022-12-08T11:50:24.438Z,43.42
2022-12-08T11:52:51.308Z,44.09
2022-12-08T11:55:20.748Z,44.11
2022-12-08T11:57:47.666Z,45.33
2022-12-08T12:00:14.878Z,45.30
2022-12-08T12:02:44.514Z,45.32
2022-12-08T12:06:05.274Z,46.31
2022-12-08T12:09:10.096Z,46.72
2022-12-08T12:11:55.306Z,45.89
2022-12-08T12:14:21.818Z,46.16
2022-12-08T12:16:53.896Z,47.45
2022-12-08T12:19:20.679Z,47.71
2022-12-08T12:21:56.880Z,47.74
2022-12-08T12:24:35.816Z,47.45
2022-12-08T12:27:06.370Z,47.62
2022-12-08T12:29:37.348Z,47.68
2022-12-08T12:32:08.341Z,47.51
2022-12-08T12:34:39.099Z,46.82
2022-12-08T12:37:09.933Z,47.58
2022-12-08T12:39:54.019Z,48.83
2022-12-08T12:42:42.941Z,47.83
2022-12-08T12:45:30.684Z,47.74
2022-12-08T12:47:57.400Z,47.48
2022-12-08T12:50:33.281Z,47.43
2022-12-08T12:53:26.400Z,47.89
2022-12-08T12:55:58.433Z,46.81
2022-12-08T12:58:27.844Z,47.23
2022-12-08T13:01:12.800Z,47.81
2022-12-08T13:03:41.395Z,46.44
2022-12-08T13:06:12.915Z,46.20
2022-12-08T13:08:49.562Z,47.24
2022-12-08T13:11:16.184Z,47.62
2022-12-08T13:13:57.866Z,47.62
2022-12-08T13:16:26.015Z,45.99
2022-12-08T13:18:56.147Z,47.87
2022-12-08T13:21:23.846Z,48.54
2022-12-08T13:24:09.693Z,49.38
2022-12-08T13:27:05.773Z,49.04
2022-12-08T13:29:33.373Z,49.55
2022-12-08T13:32:01.083Z,48.28
2022-12-08T13:34:31.739Z,47.52
2022-12-08T13:37:10.408Z,48.67
2022-12-08T13:39:40.079Z,49.08
2022-12-08T13:42:12.352Z,49.33
2022-12-08T13:48:14.125Z,49.61
2022-12-08T13:52:59.733Z,50.46
2022-12-08T13:59:20.647Z,48.40
2022-12-08T14:01:48.457Z,48.59
2022-12-08T14:07:03.873Z,49.62
2022-12-08T14:09:35.171Z,49.94
2022-12-08T14:12:03.129Z,48.79
2022-12-08T14:15:01.395Z,49.61
2022-12-08T14:17:20.182Z,49.24
2022-12-08T14:20:00.220Z,49.95
2022-12-08T14:22:37.200Z,50.38
2022-12-08T14:25:04.808Z,51.38
2022-12-08T14:27:36.929Z,51.12
2022-12-08T14:30:27.187Z,50.04
2022-12-08T14:32:58.165Z,50.79
2022-12-08T14:35:27.255Z,50.55
2022-12-08T14:38:14.138Z,50.49
2022-12-08T14:41:03.178Z,50.90
2022-12-08T14:43:30.252Z,51.74
2022-12-08T14:46:21.262Z,50.61
2022-12-08T14:48:47.926Z,50.56
2022-12-08T14:51:20.517Z,50.99
2022-12-08T14:54:01.161Z,50.63
2022-12-08T14:56:41.970Z,50.72
2022-12-08T14:59:17.640Z,50.85
2022-12-08T15:01:44.504Z,51.04
2022-12-08T15:04:14.137Z,51.09
2022-12-08T15:06:50.867Z,51.41
2022-12-08T15:09:28.443Z,51.97
2022-12-08T15:12:02.403Z,51.86
2022-12-08T15:14:33.676Z,52.22
2022-12-08T15:17:00.294Z,52.28
2022-12-08T15:19:31.156Z,52.09
2022-12-08T15:22:20.989Z,52.27
2022-12-08T15:24:47.647Z,52.51
2022-12-08T15:27:18.208Z,53.49
2022-12-08T15:29:44.873Z,54.65
2022-12-08T15:32:11.521Z,54.73
2022-12-08T15:34:38.183Z,54.78
2022-12-08T15:37:04.798Z,54.46
2022-12-08T15:39:32.085Z,53.99
2022-12-08T15:41:59.252Z,55.31
2022-12-08T15:44:25.942Z,56.21
2022-12-08T15:46:52.729Z,56.00
2022-12-08T15:49:21.316Z,56.08
2022-12-08T15:51:47.970Z,56.01
2022-12-08T15:54:14.620Z,56.40
2022-12-08T15:57:10.871Z,56.31
2022-12-08T15:59:33.278Z,55.55
2022-12-08T16:02:00.004Z,55.81
2022-12-08T16:07:39.832Z,57.58
2022-12-08T16:10:07.989Z,57.47
2022-12-08T16:13:26.921Z,57.73
2022-12-08T16:18:15.407Z,57.40
2022-12-08T16:21:07.545Z,56.67
2022-12-08T16:23:42.489Z,55.37
2022-12-08T16:26:36.038Z,55.17
2022-12-08T16:29:05.294Z,55.18
2022-12-08T16:31:32.037Z,54.46
2022-12-08T16:33:58.823Z,54.70
2022-12-08T16:36:25.455Z,54.49
2022-12-08T16:38:52.105Z,54.82
2022-12-08T16:41:18.750Z,55.20
2022-12-08T16:43:45.408Z,56.36
2022-12-08T16:46:21.200Z,56.54
2022-12-08T16:48:47.856Z,56.74
2022-12-08T16:51:22.009Z,57.07
2022-12-08T16:53:51.847Z,56.99
2022-12-08T16:56:19.732Z,57.49
2022-12-08T16:58:46.606Z,56.88
2022-12-08T17:01:14.175Z,57.40
2022-12-08T17:03:41.289Z,57.10
2022-12-08T17:06:09.810Z,57.83
2022-12-08T17:08:36.451Z,57.48
2022-12-08T17:11:03.123Z,57.10
2022-12-08T17:13:29.766Z,57.43
2022-12-08T17:15:56.401Z,57.54
2022-12-08T17:18:23.023Z,57.85
2022-12-08T17:20:49.673Z,58.16
2022-12-08T17:23:16.655Z,58.37
2022-12-08T17:25:43.295Z,58.09
2022-12-08T17:28:09.926Z,58.39
2022-12-08T17:30:36.676Z,58.58
2022-12-08T17:33:03.331Z,58.42
2022-12-08T17:35:29.962Z,58.44
2022-12-08T17:37:56.680Z,58.50
2022-12-08T17:40:26.868Z,58.51
2022-12-08T17:42:55.377Z,58.02
2022-12-08T17:45:22.030Z,57.78
2022-12-08T17:47:48.662Z,57.71
2022-12-08T17:50:15.313Z,58.35
2022-12-08T17:52:42.187Z,57.65
2022-12-08T17:55:09.867Z,57.49
2022-12-08T17:57:36.485Z,57.67
2022-12-08T18:00:04.437Z,57.39
2022-12-08T18:02:31.566Z,58.60
2022-12-08T18:04:58.258Z,58.36
2022-12-08T18:07:24.881Z,58.67
2022-12-08T18:09:51.547Z,59.23
2022-12-08T18:12:23.386Z,59.58
2022-12-08T18:14:50.571Z,59.12
2022-12-08T18:17:17.258Z,59.54
2022-12-08T18:19:43.959Z,59.55
2022-12-08T18:22:10.676Z,59.89
2022-12-08T18:24:37.295Z,59.34
2022-12-08T18:27:04.215Z,59.31
2022-12-08T18:29:30.838Z,59.30
2022-12-08T18:31:57.480Z,59.03
2022-12-08T18:34:24.096Z,59.38
2022-12-08T18:36:50.750Z,59.15
2022-12-08T18:39:25.337Z,59.11
2022-12-08T18:41:52.633Z,59.49
2022-12-08T18:44:19.273Z,58.75
2022-12-08T18:46:45.912Z,58.68
2022-12-08T18:49:13.353Z,58.75
2022-12-08T18:51:39.978Z,59.38
2022-12-08T18:54:06.628Z,59.22
2022-12-08T18:56:33.758Z,59.17
2022-12-08T18:59:05.091Z,58.33
2022-12-08T19:01:32.582Z,59.17
2022-12-08T19:06:46.885Z,60.23
2022-12-08T19:09:13.552Z,59.98
2022-12-08T19:11:40.210Z,60.18
2022-12-08T19:14:06.871Z,59.97
2022-12-08T19:16:33.601Z,59.66
2022-12-08T19:19:00.272Z,59.82
2022-12-08T19:21:26.898Z,59.34
2022-12-08T19:23:53.539Z,59.66
2022-12-08T19:26:20.190Z,59.95
2022-12-08T19:28:46.815Z,59.86
2022-12-08T19:31:13.566Z,60.51
2022-12-08T19:33:40.291Z,60.09
2022-12-08T19:36:08.063Z,60.36
2022-12-08T19:38:34.772Z,59.46
2022-12-08T19:41:01.459Z,58.54
2022-12-08T19:43:28.142Z,58.27
2022-12-08T19:45:54.950Z,58.75
2022-12-08T19:48:21.754Z,59.06
2022-12-08T19:50:48.435Z,58.53
2022-12-08T19:53:15.821Z,58.63
2022-12-08T19:55:42.789Z,58.67
2022-12-08T19:58:09.578Z,58.67
2022-12-08T20:00:36.795Z,58.78
2022-12-08T20:03:03.574Z,59.14
2022-12-08T20:05:30.393Z,59.07
2022-12-08T20:07:57.168Z,59.17
2022-12-08T20:10:34.861Z,58.95
2022-12-08T20:13:01.570Z,57.99
2022-12-08T20:15:28.221Z,58.27
2022-12-08T20:17:54.855Z,59.09
2022-12-08T20:20:21.489Z,58.77
2022-12-08T20:22:48.117Z,59.70
2022-12-08T20:25:15.251Z,59.19
2022-12-08T20:27:42.169Z,59.33
2022-12-08T20:30:14.999Z,58.91
2022-12-08T20:32:43.575Z,58.67
2022-12-08T20:35:10.259Z,58.71
2022-12-08T20:37:36.929Z,58.82
2022-12-08T20:40:04.403Z,59.46
2022-12-08T20:42:31.088Z,59.82
2022-12-08T20:44:57.733Z,59.46
2022-12-08T20:47:24.412Z,59.12
2022-12-08T20:49:51.206Z,59.92
2022-12-08T20:52:17.891Z,59.80
2022-12-08T20:54:44.561Z,59.33
2022-12-08T20:57:11.378Z,59.08
2022-12-08T20:59:38.088Z,58.99
2022-12-08T21:02:04.930Z,58.75
2022-12-08T21:04:31.773Z,59.40
2022-12-08T21:06:58.727Z,58.90
2022-12-08T21:09:25.579Z,60.04
2022-12-08T21:11:52.799Z,59.07
2022-12-08T21:14:19.487Z,59.17
2022-12-08T21:16:46.326Z,58.14
2022-12-08T21:19:13.094Z,58.10
2022-12-08T21:21:39.722Z,57.83
2022-12-08T21:24:06.913Z,57.29
2022-12-08T21:26:33.798Z,57.39
2022-12-08T21:29:00.623Z,58.28
2022-12-08T21:31:27.524Z,57.69
2022-12-08T21:33:54.436Z,57.42
2022-12-08T21:36:21.447Z,56.70
2022-12-08T21:38:48.358Z,57.43
2022-12-08T21:41:19.820Z,57.63
2022-12-08T21:43:46.627Z,57.42
2022-12-08T21:46:16.682Z,57.60
2022-12-08T21:48:43.748Z,57.49
2022-12-08T21:51:10.624Z,57.06
2022-12-08T21:53:37.392Z,57.19
2022-12-08T21:56:08.389Z,57.57
2022-12-08T21:58:35.357Z,58.33
2022-12-08T22:01:08.834Z,58.27
2022-12-08T22:03:36.092Z,58.00
2022-12-08T22:06:10.516Z,58.31
2022-12-08T22:08:37.400Z,58.89
2022-12-08T22:11:04.264Z,58.53
2022-12-08T22:13:30.975Z,58.37
2022-12-08T22:16:01.115Z,58.49
2022-12-08T22:18:28.123Z,59.05
2022-12-08T22:20:55.059Z,58.89
2022-12-08T22:23:21.738Z,58.91
2022-12-08T22:26:00.962Z,58.43
2022-12-08T22:28:28.122Z,59.21
2022-12-08T22:30:54.822Z,60.23
2022-12-08T22:33:21.459Z,60.37
2022-12-08T22:36:10.671Z,60.41
2022-12-08T22:38:37.881Z,60.02
2022-12-08T22:41:07.463Z,60.60
2022-12-08T22:43:34.300Z,60.61
2022-12-08T22:46:01.411Z,61.30
2022-12-08T22:48:28.145Z,60.98
2022-12-08T22:51:01.350Z,60.73
2022-12-08T22:53:28.088Z,60.81
2022-12-08T22:55:54.722Z,61.61
2022-12-08T22:58:21.379Z,61.28
2022-12-08T23:00:48.015Z,61.44
2022-12-08T23:03:14.716Z,61.55
2022-12-08T23:05:41.582Z,61.72
2022-12-08T23:08:08.402Z,61.56
2022-12-08T23:10:35.439Z,61.12
2022-12-08T23:13:03.884Z,61.41
2022-12-08T23:15:30.726Z,61.09
2022-12-08T23:17:57.499Z,61.25
2022-12-08T23:20:24.463Z,61.40
2022-12-08T23:22:51.112Z,62.16
2022-12-08T23:25:17.993Z,61.32
2022-12-08T23:27:45.155Z,60.96
2022-12-08T23:30:12.310Z,61.04
2022-12-08T23:32:39.122Z,61.27
2022-12-08T23:35:06.574Z,60.79
2022-12-08T23:37:33.263Z,61.13
2022-12-08T23:39:59.905Z,61.20
2022-12-08T23:42:26.536Z,61.08
2022-12-08T23:44:53.165Z,61.42
2022-12-08T23:47:19.843Z,60.97
2022-12-08T23:49:46.651Z,61.18
2022-12-08T23:52:13.808Z,61.37
2022-12-08T23:54:40.563Z,60.92
2022-12-08T23:57:07.401Z,61.72
2022-12-08T23:59:34.260Z,61.74
